Главная страница
METAR-TAF:

METAR-TAF

Аэропорты :

Vamdrup

Кольдинг, Дания

широта: 55-26N, долгота: 009-20E, высота над уровнем моря: 44 м

Текущие метеонаблюдения

Эта сводка был подготовлена 15 минут назад, в 05:20 UTC
Ветер 12 Узел от южный, изменяющийся между юго-юго-восточный и южный-юго-западный
Температура 17°C
Влажность 77%
Давление 997 hPa

METAR: EKVD 210520Z AUTO 18012KT 150V210 //// ///////// 17/13 Q0997

Время: 07:35 (05:35 UTC)

Прогноз

Эта сводка был подготовлена 15 часа и 51 минут назад, в 13:44 UTC
Прогноз действительный с 20-го 12 UTC до 20-го 16 UTC
Ветер 15 Узел от юго-западный
Видимость: 8000 м
Отдельные облака на высоте 800 фута
Рассеянная облачность на высоте 1500 фута
небольшой дождь, Морось
временами
С 20-го 13 UTC до 20-го 16 UTC
Видимость: 2500 м
Рассеянная облачность на высоте 800 фута
дождь, Морось, дымка

TAF: EKVD 201344Z 2012/2016 23015KT 8000 -RADZ SCT008 BKN015 TEMPO 2013/2016 2500 RADZ BR BKN008

Метеонаблюдения и прогнозы для более 4000 аэропортов (сводки METAR и TAF).

Имеющиеся станции представлены на карте желтыми и красными точками.

Чтобы увидеть название станции, наведите на нее мышь.

Затем щелкните, чтобы увидеть метеонаблюдения и метеопрогнозы.

Управление картой: чтобы увеличить масштаб, щелкните зеленые кнопки с черным крестиком; чтобы уменьшить масштаб, щелкните зеленую кнопку с тире; для просмотра соседних карт щелкайте зеленые стрелки.


METAR-TAF: